sensor_id;sensor_type;location;lat;lon;timestamp;P1;durP1;ratioP1;P2;durP2;ratioP2
70433;SDS011;57876;47.792;12.960;2023-06-10T00:02:07;4.50;;;1.40;;
70433;SDS011;57876;47.792;12.960;2023-06-10T00:04:32;4.40;;;1.30;;
70433;SDS011;57876;47.792;12.960;2023-06-10T00:06:56;4.72;;;1.50;;
70433;SDS011;57876;47.792;12.960;2023-06-10T00:09:21;5.23;;;1.30;;
70433;SDS011;57876;47.792;12.960;2023-06-10T00:11:46;4.63;;;1.40;;
70433;SDS011;57876;47.792;12.960;2023-06-10T00:14:11;4.97;;;1.70;;
70433;SDS011;57876;47.792;12.960;2023-06-10T00:16:35;4.70;;;1.53;;
70433;SDS011;57876;47.792;12.960;2023-06-10T00:19:00;4.80;;;1.53;;
70433;SDS011;57876;47.792;12.960;2023-06-10T00:21:24;4.43;;;1.40;;
70433;SDS011;57876;47.792;12.960;2023-06-10T00:23:50;4.20;;;1.27;;
70433;SDS011;57876;47.792;12.960;2023-06-10T00:26:14;4.40;;;1.40;;
70433;SDS011;57876;47.792;12.960;2023-06-10T00:28:39;4.65;;;1.45;;
70433;SDS011;57876;47.792;12.960;2023-06-10T00:31:03;4.47;;;1.30;;
70433;SDS011;57876;47.792;12.960;2023-06-10T00:33:29;4.80;;;1.23;;
70433;SDS011;57876;47.792;12.960;2023-06-10T00:35:53;4.73;;;1.40;;
70433;SDS011;57876;47.792;12.960;2023-06-10T00:38:17;4.57;;;1.40;;
70433;SDS011;57876;47.792;12.960;2023-06-10T00:40:42;4.70;;;1.30;;
70433;SDS011;57876;47.792;12.960;2023-06-10T00:43:06;4.37;;;1.40;;
70433;SDS011;57876;47.792;12.960;2023-06-10T00:45:31;4.30;;;1.20;;
70433;SDS011;57876;47.792;12.960;2023-06-10T00:47:56;4.60;;;1.47;;
70433;SDS011;57876;47.792;12.960;2023-06-10T00:50:20;4.70;;;1.42;;
70433;SDS011;57876;47.792;12.960;2023-06-10T00:52:45;4.50;;;1.40;;
70433;SDS011;57876;47.792;12.960;2023-06-10T00:55:12;4.50;;;1.50;;
70433;SDS011;57876;47.792;12.960;2023-06-10T00:57:36;4.77;;;1.40;;
70433;SDS011;57876;47.792;12.960;2023-06-10T01:00:01;4.63;;;1.50;;
70433;SDS011;57876;47.792;12.960;2023-06-10T01:02:27;4.95;;;1.60;;
70433;SDS011;57876;47.792;12.960;2023-06-10T01:04:51;4.73;;;1.40;;
70433;SDS011;57876;47.792;12.960;2023-06-10T01:07:25;4.47;;;1.55;;
70433;SDS011;57876;47.792;12.960;2023-06-10T01:10:01;4.57;;;1.40;;
70433;SDS011;57876;47.792;12.960;2023-06-10T01:12:31;4.57;;;1.50;;
70433;SDS011;57876;47.792;12.960;2023-06-10T01:14:59;4.50;;;1.38;;
70433;SDS011;57876;47.792;12.960;2023-06-10T01:17:24;4.70;;;1.52;;
70433;SDS011;57876;47.792;12.960;2023-06-10T01:19:54;4.60;;;1.40;;
70433;SDS011;57876;47.792;12.960;2023-06-10T01:22:19;4.53;;;1.60;;
70433;SDS011;57876;47.792;12.960;2023-06-10T01:24:44;4.90;;;1.40;;
70433;SDS011;57876;47.792;12.960;2023-06-10T01:27:10;5.10;;;1.60;;
70433;SDS011;57876;47.792;12.960;2023-06-10T01:29:41;4.57;;;1.60;;
70433;SDS011;57876;47.792;12.960;2023-06-10T01:32:17;4.60;;;1.50;;
70433;SDS011;57876;47.792;12.960;2023-06-10T01:34:45;4.50;;;1.50;;
70433;SDS011;57876;47.792;12.960;2023-06-10T01:37:12;5.00;;;1.52;;
70433;SDS011;57876;47.792;12.960;2023-06-10T01:39:39;4.70;;;1.50;;
70433;SDS011;57876;47.792;12.960;2023-06-10T01:42:05;4.97;;;1.60;;
70433;SDS011;57876;47.792;12.960;2023-06-10T01:44:30;4.82;;;1.50;;
70433;SDS011;57876;47.792;12.960;2023-06-10T01:46:56;4.55;;;1.65;;
70433;SDS011;57876;47.792;12.960;2023-06-10T01:49:20;4.90;;;1.60;;
70433;SDS011;57876;47.792;12.960;2023-06-10T01:51:46;4.60;;;1.40;;
70433;SDS011;57876;47.792;12.960;2023-06-10T01:54:10;4.72;;;1.50;;
70433;SDS011;57876;47.792;12.960;2023-06-10T01:56:34;4.57;;;1.50;;
70433;SDS011;57876;47.792;12.960;2023-06-10T01:58:59;4.60;;;1.60;;
70433;SDS011;57876;47.792;12.960;2023-06-10T02:01:23;4.57;;;1.57;;
70433;SDS011;57876;47.792;12.960;2023-06-10T02:03:47;4.87;;;1.47;;
70433;SDS011;57876;47.792;12.960;2023-06-10T02:06:12;4.77;;;1.60;;
70433;SDS011;57876;47.792;12.960;2023-06-10T02:08:36;4.68;;;1.45;;
70433;SDS011;57876;47.792;12.960;2023-06-10T02:11:01;4.50;;;1.30;;
70433;SDS011;57876;47.792;12.960;2023-06-10T02:13:25;5.00;;;1.60;;
70433;SDS011;57876;47.792;12.960;2023-06-10T02:15:49;4.70;;;1.50;;
70433;SDS011;57876;47.792;12.960;2023-06-10T02:18:14;4.70;;;1.70;;
70433;SDS011;57876;47.792;12.960;2023-06-10T02:20:38;4.72;;;1.50;;
70433;SDS011;57876;47.792;12.960;2023-06-10T02:23:03;4.57;;;1.53;;
70433;SDS011;57876;47.792;12.960;2023-06-10T02:25:27;4.83;;;1.70;;
70433;SDS011;57876;47.792;12.960;2023-06-10T02:27:52;4.60;;;1.60;;
70433;SDS011;57876;47.792;12.960;2023-06-10T02:30:16;5.00;;;1.60;;
70433;SDS011;57876;47.792;12.960;2023-06-10T02:32:40;5.00;;;1.80;;
70433;SDS011;57876;47.792;12.960;2023-06-10T02:35:05;4.93;;;1.67;;
70433;SDS011;57876;47.792;12.960;2023-06-10T02:37:30;4.93;;;1.67;;
70433;SDS011;57876;47.792;12.960;2023-06-10T02:39:55;4.70;;;1.60;;
70433;SDS011;57876;47.792;12.960;2023-06-10T02:42:19;4.60;;;1.48;;
70433;SDS011;57876;47.792;12.960;2023-06-10T02:44:43;4.70;;;1.67;;
70433;SDS011;57876;47.792;12.960;2023-06-10T02:47:08;5.10;;;1.70;;
70433;SDS011;57876;47.792;12.960;2023-06-10T02:49:32;4.93;;;1.63;;
70433;SDS011;57876;47.792;12.960;2023-06-10T02:51:57;5.00;;;1.80;;
70433;SDS011;57876;47.792;12.960;2023-06-10T02:54:21;4.90;;;1.80;;
70433;SDS011;57876;47.792;12.960;2023-06-10T02:56:46;4.70;;;1.50;;
70433;SDS011;57876;47.792;12.960;2023-06-10T02:59:11;4.70;;;1.57;;
70433;SDS011;57876;47.792;12.960;2023-06-10T03:01:36;4.70;;;1.70;;
70433;SDS011;57876;47.792;12.960;2023-06-10T03:04:01;5.03;;;1.77;;
70433;SDS011;57876;47.792;12.960;2023-06-10T03:06:25;4.67;;;1.57;;
70433;SDS011;57876;47.792;12.960;2023-06-10T03:08:50;4.43;;;1.50;;
70433;SDS011;57876;47.792;12.960;2023-06-10T03:11:14;4.80;;;1.60;;
70433;SDS011;57876;47.792;12.960;2023-06-10T03:13:39;5.00;;;1.60;;
70433;SDS011;57876;47.792;12.960;2023-06-10T03:16:04;4.90;;;1.60;;
70433;SDS011;57876;47.792;12.960;2023-06-10T03:18:28;4.93;;;1.67;;
70433;SDS011;57876;47.792;12.960;2023-06-10T03:20:53;4.70;;;1.60;;
70433;SDS011;57876;47.792;12.960;2023-06-10T03:23:19;4.95;;;1.70;;
70433;SDS011;57876;47.792;12.960;2023-06-10T03:25:43;4.93;;;1.70;;
70433;SDS011;57876;47.792;12.960;2023-06-10T03:28:08;5.00;;;1.80;;
70433;SDS011;57876;47.792;12.960;2023-06-10T03:30:32;5.53;;;1.70;;
70433;SDS011;57876;47.792;12.960;2023-06-10T03:32:57;4.97;;;2.00;;
70433;SDS011;57876;47.792;12.960;2023-06-10T03:35:21;4.80;;;1.80;;
70433;SDS011;57876;47.792;12.960;2023-06-10T03:37:46;5.27;;;1.80;;
70433;SDS011;57876;47.792;12.960;2023-06-10T03:40:10;5.00;;;1.80;;
70433;SDS011;57876;47.792;12.960;2023-06-10T03:42:35;5.28;;;2.00;;
70433;SDS011;57876;47.792;12.960;2023-06-10T03:44:59;5.57;;;1.60;;
70433;SDS011;57876;47.792;12.960;2023-06-10T03:47:24;4.60;;;1.67;;
70433;SDS011;57876;47.792;12.960;2023-06-10T03:49:48;5.03;;;1.80;;
70433;SDS011;57876;47.792;12.960;2023-06-10T03:52:12;4.67;;;1.70;;
70433;SDS011;57876;47.792;12.960;2023-06-10T03:54:37;4.90;;;1.85;;
70433;SDS011;57876;47.792;12.960;2023-06-10T03:57:01;4.60;;;1.60;;
70433;SDS011;57876;47.792;12.960;2023-06-10T03:59:27;4.90;;;1.80;;
70433;SDS011;57876;47.792;12.960;2023-06-10T04:01:52;4.80;;;1.80;;
70433;SDS011;57876;47.792;12.960;2023-06-10T04:04:17;5.10;;;1.70;;
70433;SDS011;57876;47.792;12.960;2023-06-10T04:06:41;4.90;;;1.80;;
70433;SDS011;57876;47.792;12.960;2023-06-10T04:09:07;5.38;;;1.92;;
70433;SDS011;57876;47.792;12.960;2023-06-10T04:11:32;6.07;;;2.50;;
70433;SDS011;57876;47.792;12.960;2023-06-10T04:13:56;5.50;;;2.40;;
70433;SDS011;57876;47.792;12.960;2023-06-10T04:16:21;6.72;;;2.60;;
70433;SDS011;57876;47.792;12.960;2023-06-10T04:18:45;5.40;;;2.50;;
70433;SDS011;57876;47.792;12.960;2023-06-10T04:21:09;6.00;;;2.80;;
70433;SDS011;57876;47.792;12.960;2023-06-10T04:23:37;6.57;;;2.80;;
70433;SDS011;57876;47.792;12.960;2023-06-10T04:26:02;6.10;;;2.60;;
70433;SDS011;57876;47.792;12.960;2023-06-10T04:28:26;7.03;;;2.80;;
70433;SDS011;57876;47.792;12.960;2023-06-10T04:30:51;6.10;;;2.70;;
70433;SDS011;57876;47.792;12.960;2023-06-10T04:33:15;6.53;;;3.10;;
70433;SDS011;57876;47.792;12.960;2023-06-10T04:35:40;6.63;;;2.90;;
70433;SDS011;57876;47.792;12.960;2023-06-10T04:38:04;6.00;;;3.10;;
70433;SDS011;57876;47.792;12.960;2023-06-10T04:40:29;6.10;;;2.95;;
70433;SDS011;57876;47.792;12.960;2023-06-10T04:42:53;6.47;;;3.00;;
70433;SDS011;57876;47.792;12.960;2023-06-10T04:45:18;6.87;;;2.90;;
70433;SDS011;57876;47.792;12.960;2023-06-10T04:47:42;5.90;;;2.65;;
70433;SDS011;57876;47.792;12.960;2023-06-10T04:50:07;6.07;;;2.80;;
70433;SDS011;57876;47.792;12.960;2023-06-10T04:52:32;7.40;;;2.97;;
70433;SDS011;57876;47.792;12.960;2023-06-10T04:54:57;6.17;;;2.57;;
70433;SDS011;57876;47.792;12.960;2023-06-10T04:57:22;6.90;;;3.25;;
70433;SDS011;57876;47.792;12.960;2023-06-10T04:59:47;7.47;;;3.10;;
70433;SDS011;57876;47.792;12.960;2023-06-10T05:02:11;6.47;;;3.10;;
70433;SDS011;57876;47.792;12.960;2023-06-10T05:04:36;6.37;;;2.90;;
70433;SDS011;57876;47.792;12.960;2023-06-10T05:07:00;6.23;;;3.00;;
70433;SDS011;57876;47.792;12.960;2023-06-10T05:09:24;5.80;;;2.80;;
70433;SDS011;57876;47.792;12.960;2023-06-10T05:11:50;6.80;;;3.30;;
70433;SDS011;57876;47.792;12.960;2023-06-10T05:14:14;6.50;;;2.90;;
70433;SDS011;57876;47.792;12.960;2023-06-10T05:16:43;6.00;;;2.87;;
70433;SDS011;57876;47.792;12.960;2023-06-10T05:19:07;6.67;;;2.97;;
70433;SDS011;57876;47.792;12.960;2023-06-10T05:21:31;6.30;;;3.00;;
70433;SDS011;57876;47.792;12.960;2023-06-10T05:23:56;6.33;;;2.83;;
70433;SDS011;57876;47.792;12.960;2023-06-10T05:26:20;6.23;;;3.30;;
70433;SDS011;57876;47.792;12.960;2023-06-10T05:28:44;6.23;;;3.00;;
70433;SDS011;57876;47.792;12.960;2023-06-10T05:31:09;6.47;;;3.10;;
70433;SDS011;57876;47.792;12.960;2023-06-10T05:33:33;6.37;;;3.17;;
70433;SDS011;57876;47.792;12.960;2023-06-10T05:35:58;6.45;;;2.80;;
70433;SDS011;57876;47.792;12.960;2023-06-10T05:38:22;6.73;;;3.20;;
70433;SDS011;57876;47.792;12.960;2023-06-10T05:40:47;6.10;;;3.00;;
70433;SDS011;57876;47.792;12.960;2023-06-10T05:43:11;5.87;;;2.87;;
70433;SDS011;57876;47.792;12.960;2023-06-10T05:45:35;9.63;;;3.22;;
70433;SDS011;57876;47.792;12.960;2023-06-10T05:48:00;6.30;;;2.90;;
70433;SDS011;57876;47.792;12.960;2023-06-10T05:50:25;5.77;;;2.80;;
70433;SDS011;57876;47.792;12.960;2023-06-10T05:52:49;6.18;;;3.08;;
70433;SDS011;57876;47.792;12.960;2023-06-10T05:55:14;6.10;;;2.73;;
70433;SDS011;57876;47.792;12.960;2023-06-10T05:57:40;6.43;;;2.93;;
70433;SDS011;57876;47.792;12.960;2023-06-10T06:00:05;6.05;;;2.80;;
70433;SDS011;57876;47.792;12.960;2023-06-10T06:02:30;7.32;;;3.08;;
70433;SDS011;57876;47.792;12.960;2023-06-10T06:04:55;6.30;;;2.90;;
70433;SDS011;57876;47.792;12.960;2023-06-10T06:07:19;7.90;;;3.00;;
70433;SDS011;57876;47.792;12.960;2023-06-10T06:09:44;6.45;;;2.88;;
70433;SDS011;57876;47.792;12.960;2023-06-10T06:12:09;6.03;;;2.70;;
70433;SDS011;57876;47.792;12.960;2023-06-10T06:14:36;6.55;;;2.55;;
70433;SDS011;57876;47.792;12.960;2023-06-10T06:17:02;6.50;;;2.97;;
70433;SDS011;57876;47.792;12.960;2023-06-10T06:19:26;6.10;;;2.88;;
70433;SDS011;57876;47.792;12.960;2023-06-10T06:21:50;6.13;;;2.67;;
70433;SDS011;57876;47.792;12.960;2023-06-10T06:24:15;6.33;;;2.80;;
70433;SDS011;57876;47.792;12.960;2023-06-10T06:26:40;5.75;;;2.65;;
70433;SDS011;57876;47.792;12.960;2023-06-10T06:29:04;5.93;;;2.83;;
70433;SDS011;57876;47.792;12.960;2023-06-10T06:31:29;5.30;;;2.50;;
70433;SDS011;57876;47.792;12.960;2023-06-10T06:33:54;6.75;;;2.70;;
70433;SDS011;57876;47.792;12.960;2023-06-10T06:36:18;5.80;;;2.60;;
70433;SDS011;57876;47.792;12.960;2023-06-10T06:38:42;7.13;;;3.00;;
70433;SDS011;57876;47.792;12.960;2023-06-10T06:41:07;6.00;;;2.70;;
70433;SDS011;57876;47.792;12.960;2023-06-10T06:43:31;6.40;;;3.03;;
70433;SDS011;57876;47.792;12.960;2023-06-10T06:45:56;5.97;;;2.63;;
70433;SDS011;57876;47.792;12.960;2023-06-10T06:48:21;5.55;;;2.50;;
70433;SDS011;57876;47.792;12.960;2023-06-10T06:50:46;5.57;;;2.50;;
70433;SDS011;57876;47.792;12.960;2023-06-10T06:53:10;6.10;;;2.70;;
70433;SDS011;57876;47.792;12.960;2023-06-10T06:55:35;5.63;;;2.40;;
70433;SDS011;57876;47.792;12.960;2023-06-10T06:57:59;6.30;;;2.83;;
70433;SDS011;57876;47.792;12.960;2023-06-10T07:00:26;5.90;;;2.60;;
70433;SDS011;57876;47.792;12.960;2023-06-10T07:02:51;7.17;;;2.60;;
70433;SDS011;57876;47.792;12.960;2023-06-10T07:05:15;5.90;;;2.53;;
70433;SDS011;57876;47.792;12.960;2023-06-10T07:07:39;6.07;;;2.70;;
70433;SDS011;57876;47.792;12.960;2023-06-10T07:10:04;5.85;;;2.60;;
70433;SDS011;57876;47.792;12.960;2023-06-10T07:12:29;5.77;;;2.50;;
70433;SDS011;57876;47.792;12.960;2023-06-10T07:14:53;5.67;;;2.60;;
70433;SDS011;57876;47.792;12.960;2023-06-10T07:17:17;5.30;;;2.53;;
70433;SDS011;57876;47.792;12.960;2023-06-10T07:19:42;6.20;;;2.80;;
70433;SDS011;57876;47.792;12.960;2023-06-10T07:22:06;5.50;;;2.30;;
70433;SDS011;57876;47.792;12.960;2023-06-10T07:24:31;5.43;;;2.40;;
70433;SDS011;57876;47.792;12.960;2023-06-10T07:26:55;5.50;;;2.25;;
70433;SDS011;57876;47.792;12.960;2023-06-10T07:29:19;5.63;;;2.30;;
70433;SDS011;57876;47.792;12.960;2023-06-10T07:31:44;6.23;;;2.60;;
70433;SDS011;57876;47.792;12.960;2023-06-10T07:34:08;6.27;;;2.60;;
70433;SDS011;57876;47.792;12.960;2023-06-10T07:36:33;5.45;;;2.08;;
70433;SDS011;57876;47.792;12.960;2023-06-10T07:38:57;5.70;;;2.43;;
70433;SDS011;57876;47.792;12.960;2023-06-10T07:41:24;5.93;;;2.70;;
70433;SDS011;57876;47.792;12.960;2023-06-10T07:43:49;5.50;;;2.25;;
70433;SDS011;57876;47.792;12.960;2023-06-10T07:46:18;5.70;;;2.40;;
70433;SDS011;57876;47.792;12.960;2023-06-10T07:48:42;6.53;;;2.63;;
70433;SDS011;57876;47.792;12.960;2023-06-10T07:51:07;5.70;;;2.50;;
70433;SDS011;57876;47.792;12.960;2023-06-10T07:53:31;5.47;;;2.17;;
70433;SDS011;57876;47.792;12.960;2023-06-10T07:55:55;6.40;;;2.67;;
70433;SDS011;57876;47.792;12.960;2023-06-10T07:58:20;5.63;;;2.60;;
70433;SDS011;57876;47.792;12.960;2023-06-10T08:00:46;5.20;;;2.15;;
70433;SDS011;57876;47.792;12.960;2023-06-10T08:03:10;6.20;;;2.57;;
70433;SDS011;57876;47.792;12.960;2023-06-10T08:05:35;5.82;;;2.50;;
70433;SDS011;57876;47.792;12.960;2023-06-10T08:07:59;5.53;;;2.60;;
70433;SDS011;57876;47.792;12.960;2023-06-10T08:10:24;5.47;;;2.30;;
70433;SDS011;57876;47.792;12.960;2023-06-10T08:12:48;6.23;;;2.40;;
70433;SDS011;57876;47.792;12.960;2023-06-10T08:15:12;6.70;;;2.30;;
70433;SDS011;57876;47.792;12.960;2023-06-10T08:17:40;6.05;;;2.30;;
70433;SDS011;57876;47.792;12.960;2023-06-10T08:20:05;5.33;;;2.30;;
70433;SDS011;57876;47.792;12.960;2023-06-10T08:22:30;5.60;;;2.20;;
70433;SDS011;57876;47.792;12.960;2023-06-10T08:24:54;5.50;;;2.17;;
70433;SDS011;57876;47.792;12.960;2023-06-10T08:27:20;5.68;;;2.20;;
70433;SDS011;57876;47.792;12.960;2023-06-10T08:29:44;5.73;;;2.50;;
70433;SDS011;57876;47.792;12.960;2023-06-10T08:32:09;5.20;;;2.00;;
70433;SDS011;57876;47.792;12.960;2023-06-10T08:34:33;5.30;;;2.23;;
70433;SDS011;57876;47.792;12.960;2023-06-10T08:37:02;5.80;;;2.40;;
70433;SDS011;57876;47.792;12.960;2023-06-10T08:39:27;5.47;;;2.30;;
70433;SDS011;57876;47.792;12.960;2023-06-10T08:45:19;5.50;;;2.40;;
70433;SDS011;57876;47.792;12.960;2023-06-10T08:47:47;6.35;;;2.33;;
70433;SDS011;57876;47.792;12.960;2023-06-10T08:50:15;5.20;;;2.20;;
70433;SDS011;57876;47.792;12.960;2023-06-10T08:52:42;5.28;;;2.25;;
70433;SDS011;57876;47.792;12.960;2023-06-10T08:55:11;5.32;;;2.20;;
70433;SDS011;57876;47.792;12.960;2023-06-10T08:57:40;6.00;;;2.47;;
70433;SDS011;57876;47.792;12.960;2023-06-10T09:00:05;5.88;;;2.20;;
70433;SDS011;57876;47.792;12.960;2023-06-10T09:02:31;5.90;;;2.50;;
70433;SDS011;57876;47.792;12.960;2023-06-10T09:04:59;5.43;;;2.15;;
70433;SDS011;57876;47.792;12.960;2023-06-10T09:07:23;5.67;;;2.50;;
70433;SDS011;57876;47.792;12.960;2023-06-10T09:09:49;5.10;;;2.30;;
70433;SDS011;57876;47.792;12.960;2023-06-10T09:12:13;5.40;;;2.17;;
70433;SDS011;57876;47.792;12.960;2023-06-10T09:14:39;5.38;;;2.13;;
70433;SDS011;57876;47.792;12.960;2023-06-10T09:17:03;5.10;;;2.20;;
70433;SDS011;57876;47.792;12.960;2023-06-10T09:19:29;5.28;;;2.15;;
70433;SDS011;57876;47.792;12.960;2023-06-10T09:21:53;5.22;;;2.10;;
70433;SDS011;57876;47.792;12.960;2023-06-10T09:24:18;5.30;;;2.00;;
70433;SDS011;57876;47.792;12.960;2023-06-10T09:26:43;5.30;;;2.00;;
70433;SDS011;57876;47.792;12.960;2023-06-10T09:29:08;5.40;;;2.17;;
70433;SDS011;57876;47.792;12.960;2023-06-10T09:31:35;5.57;;;2.28;;
70433;SDS011;57876;47.792;12.960;2023-06-10T09:34:07;5.40;;;2.30;;
70433;SDS011;57876;47.792;12.960;2023-06-10T09:36:34;5.43;;;2.13;;
70433;SDS011;57876;47.792;12.960;2023-06-10T09:38:59;5.28;;;2.10;;
70433;SDS011;57876;47.792;12.960;2023-06-10T09:41:42;5.10;;;2.07;;
70433;SDS011;57876;47.792;12.960;2023-06-10T09:44:12;5.45;;;2.08;;
70433;SDS011;57876;47.792;12.960;2023-06-10T09:46:39;5.30;;;2.10;;
70433;SDS011;57876;47.792;12.960;2023-06-10T09:49:04;5.38;;;2.17;;
70433;SDS011;57876;47.792;12.960;2023-06-10T09:51:28;5.13;;;2.07;;
70433;SDS011;57876;47.792;12.960;2023-06-10T09:53:53;5.43;;;2.13;;
70433;SDS011;57876;47.792;12.960;2023-06-10T09:56:18;5.22;;;2.10;;
70433;SDS011;57876;47.792;12.960;2023-06-10T09:58:44;5.23;;;2.20;;
70433;SDS011;57876;47.792;12.960;2023-06-10T10:01:10;5.43;;;2.05;;
70433;SDS011;57876;47.792;12.960;2023-06-10T10:03:49;5.03;;;2.00;;
70433;SDS011;57876;47.792;12.960;2023-06-10T10:06:15;5.63;;;2.38;;
70433;SDS011;57876;47.792;12.960;2023-06-10T10:08:40;5.32;;;2.15;;
70433;SDS011;57876;47.792;12.960;2023-06-10T10:11:05;5.20;;;2.00;;
70433;SDS011;57876;47.792;12.960;2023-06-10T10:13:29;4.73;;;1.83;;
70433;SDS011;57876;47.792;12.960;2023-06-10T10:15:59;5.40;;;2.10;;
70433;SDS011;57876;47.792;12.960;2023-06-10T10:18:29;4.85;;;2.00;;
70433;SDS011;57876;47.792;12.960;2023-06-10T10:20:55;5.70;;;2.20;;
70433;SDS011;57876;47.792;12.960;2023-06-10T10:23:26;5.10;;;2.10;;
70433;SDS011;57876;47.792;12.960;2023-06-10T10:25:59;5.10;;;2.20;;
70433;SDS011;57876;47.792;12.960;2023-06-10T10:28:31;4.90;;;1.98;;
70433;SDS011;57876;47.792;12.960;2023-06-10T10:31:09;4.97;;;1.90;;
70433;SDS011;57876;47.792;12.960;2023-06-10T10:33:36;5.10;;;2.10;;
70433;SDS011;57876;47.792;12.960;2023-06-10T10:36:09;5.33;;;2.20;;
70433;SDS011;57876;47.792;12.960;2023-06-10T10:38:35;5.40;;;2.10;;
70433;SDS011;57876;47.792;12.960;2023-06-10T10:41:00;5.38;;;2.15;;
70433;SDS011;57876;47.792;12.960;2023-06-10T10:43:25;5.10;;;2.00;;
70433;SDS011;57876;47.792;12.960;2023-06-10T10:46:00;4.90;;;1.87;;
70433;SDS011;57876;47.792;12.960;2023-06-10T10:48:25;4.50;;;1.80;;
70433;SDS011;57876;47.792;12.960;2023-06-10T10:50:57;5.15;;;2.00;;
70433;SDS011;57876;47.792;12.960;2023-06-10T10:53:22;5.03;;;1.80;;
70433;SDS011;57876;47.792;12.960;2023-06-10T10:55:57;5.40;;;2.00;;
70433;SDS011;57876;47.792;12.960;2023-06-10T10:58:32;5.60;;;2.20;;
70433;SDS011;57876;47.792;12.960;2023-06-10T11:00:56;4.97;;;1.90;;
70433;SDS011;57876;47.792;12.960;2023-06-10T11:03:20;5.10;;;2.00;;
70433;SDS011;57876;47.792;12.960;2023-06-10T11:05:46;4.90;;;2.00;;
70433;SDS011;57876;47.792;12.960;2023-06-10T11:08:13;5.25;;;2.00;;
70433;SDS011;57876;47.792;12.960;2023-06-10T11:10:38;5.13;;;2.10;;
70433;SDS011;57876;47.792;12.960;2023-06-10T11:13:19;5.05;;;1.95;;
70433;SDS011;57876;47.792;12.960;2023-06-10T11:15:46;4.70;;;1.80;;
70433;SDS011;57876;47.792;12.960;2023-06-10T11:18:14;5.05;;;1.90;;
70433;SDS011;57876;47.792;12.960;2023-06-10T11:33:53;5.00;;;1.90;;
70433;SDS011;57876;47.792;12.960;2023-06-10T11:36:18;5.10;;;2.07;;
70433;SDS011;57876;47.792;12.960;2023-06-10T11:38:43;5.10;;;2.10;;
70433;SDS011;57876;47.792;12.960;2023-06-10T11:41:08;5.23;;;2.00;;
70433;SDS011;57876;47.792;12.960;2023-06-10T11:43:33;4.97;;;1.88;;
70433;SDS011;57876;47.792;12.960;2023-06-10T11:45:58;4.90;;;1.83;;
70433;SDS011;57876;47.792;12.960;2023-06-10T11:48:23;5.13;;;2.00;;
70433;SDS011;57876;47.792;12.960;2023-06-10T11:50:48;4.90;;;1.83;;
70433;SDS011;57876;47.792;12.960;2023-06-10T11:53:12;4.80;;;1.83;;
70433;SDS011;57876;47.792;12.960;2023-06-10T11:55:47;5.40;;;1.83;;
70433;SDS011;57876;47.792;12.960;2023-06-10T11:58:22;5.00;;;1.98;;
70433;SDS011;57876;47.792;12.960;2023-06-10T12:00:47;4.90;;;1.73;;
70433;SDS011;57876;47.792;12.960;2023-06-10T12:03:12;4.90;;;1.67;;
70433;SDS011;57876;47.792;12.960;2023-06-10T12:05:37;4.80;;;1.70;;
70433;SDS011;57876;47.792;12.960;2023-06-10T12:08:11;5.20;;;1.97;;
70433;SDS011;57876;47.792;12.960;2023-06-10T12:10:40;5.22;;;1.90;;
70433;SDS011;57876;47.792;12.960;2023-06-10T12:13:05;4.88;;;1.77;;
70433;SDS011;57876;47.792;12.960;2023-06-10T12:15:30;5.00;;;1.90;;
70433;SDS011;57876;47.792;12.960;2023-06-10T12:17:56;5.10;;;2.00;;
70433;SDS011;57876;47.792;12.960;2023-06-10T12:20:24;5.10;;;1.83;;
70433;SDS011;57876;47.792;12.960;2023-06-10T12:22:51;4.90;;;1.90;;
70433;SDS011;57876;47.792;12.960;2023-06-10T12:25:16;5.13;;;1.80;;
70433;SDS011;57876;47.792;12.960;2023-06-10T12:27:40;5.30;;;1.95;;
70433;SDS011;57876;47.792;12.960;2023-06-10T12:30:18;4.60;;;1.87;;
70433;SDS011;57876;47.792;12.960;2023-06-10T12:32:44;5.00;;;1.90;;
70433;SDS011;57876;47.792;12.960;2023-06-10T12:35:10;5.00;;;1.80;;
70433;SDS011;57876;47.792;12.960;2023-06-10T12:37:36;5.10;;;1.70;;
70433;SDS011;57876;47.792;12.960;2023-06-10T12:40:01;5.10;;;1.97;;
70433;SDS011;57876;47.792;12.960;2023-06-10T12:42:32;5.10;;;1.95;;
70433;SDS011;57876;47.792;12.960;2023-06-10T12:45:01;5.10;;;1.75;;
70433;SDS011;57876;47.792;12.960;2023-06-10T12:47:29;5.03;;;1.80;;
70433;SDS011;57876;47.792;12.960;2023-06-10T12:50:03;4.88;;;1.70;;
70433;SDS011;57876;47.792;12.960;2023-06-10T12:52:28;5.00;;;1.90;;
70433;SDS011;57876;47.792;12.960;2023-06-10T12:54:53;4.50;;;1.50;;
70433;SDS011;57876;47.792;12.960;2023-06-10T12:57:18;5.00;;;1.80;;
70433;SDS011;57876;47.792;12.960;2023-06-10T12:59:43;4.80;;;1.60;;
70433;SDS011;57876;47.792;12.960;2023-06-10T13:02:14;5.00;;;1.60;;
70433;SDS011;57876;47.792;12.960;2023-06-10T13:04:38;4.80;;;1.80;;
70433;SDS011;57876;47.792;12.960;2023-06-10T13:07:03;4.80;;;1.73;;
70433;SDS011;57876;47.792;12.960;2023-06-10T13:09:27;4.90;;;1.80;;
70433;SDS011;57876;47.792;12.960;2023-06-10T13:11:52;4.90;;;1.73;;
70433;SDS011;57876;47.792;12.960;2023-06-10T13:14:16;4.83;;;1.73;;
70433;SDS011;57876;47.792;12.960;2023-06-10T13:16:41;5.00;;;1.67;;
70433;SDS011;57876;47.792;12.960;2023-06-10T13:19:07;4.60;;;1.67;;
70433;SDS011;57876;47.792;12.960;2023-06-10T13:21:32;4.95;;;1.63;;
70433;SDS011;57876;47.792;12.960;2023-06-10T13:23:57;4.80;;;1.70;;
70433;SDS011;57876;47.792;12.960;2023-06-10T13:26:22;4.82;;;1.70;;
70433;SDS011;57876;47.792;12.960;2023-06-10T13:28:46;4.80;;;1.67;;
70433;SDS011;57876;47.792;12.960;2023-06-10T13:31:10;4.97;;;1.70;;
70433;SDS011;57876;47.792;12.960;2023-06-10T13:33:35;4.80;;;1.70;;
70433;SDS011;57876;47.792;12.960;2023-06-10T13:35:59;5.00;;;1.87;;
70433;SDS011;57876;47.792;12.960;2023-06-10T13:38:24;4.70;;;1.63;;
70433;SDS011;57876;47.792;12.960;2023-06-10T13:40:48;4.53;;;1.70;;
70433;SDS011;57876;47.792;12.960;2023-06-10T13:43:12;4.50;;;1.50;;
70433;SDS011;57876;47.792;12.960;2023-06-10T13:45:37;4.90;;;1.70;;
70433;SDS011;57876;47.792;12.960;2023-06-10T13:48:01;5.17;;;1.90;;
70433;SDS011;57876;47.792;12.960;2023-06-10T13:50:28;4.70;;;1.70;;
70433;SDS011;57876;47.792;12.960;2023-06-10T13:52:52;4.70;;;1.70;;
70433;SDS011;57876;47.792;12.960;2023-06-10T13:55:17;4.70;;;1.53;;
70433;SDS011;57876;47.792;12.960;2023-06-10T13:57:42;4.90;;;1.77;;
70433;SDS011;57876;47.792;12.960;2023-06-10T14:00:07;4.70;;;1.50;;
70433;SDS011;57876;47.792;12.960;2023-06-10T14:02:32;5.07;;;1.70;;
70433;SDS011;57876;47.792;12.960;2023-06-10T14:04:56;4.77;;;1.63;;
70433;SDS011;57876;47.792;12.960;2023-06-10T14:07:20;4.80;;;1.80;;
70433;SDS011;57876;47.792;12.960;2023-06-10T14:09:45;4.70;;;1.60;;
70433;SDS011;57876;47.792;12.960;2023-06-10T14:12:09;4.90;;;1.70;;
70433;SDS011;57876;47.792;12.960;2023-06-10T14:14:34;4.70;;;1.70;;
70433;SDS011;57876;47.792;12.960;2023-06-10T14:17:00;4.78;;;1.70;;
70433;SDS011;57876;47.792;12.960;2023-06-10T14:19:24;4.70;;;1.60;;
70433;SDS011;57876;47.792;12.960;2023-06-10T14:21:49;4.80;;;1.60;;
70433;SDS011;57876;47.792;12.960;2023-06-10T14:24:13;5.05;;;1.80;;
70433;SDS011;57876;47.792;12.960;2023-06-10T14:26:37;5.00;;;1.90;;
70433;SDS011;57876;47.792;12.960;2023-06-10T14:29:02;4.70;;;1.60;;
70433;SDS011;57876;47.792;12.960;2023-06-10T14:31:26;5.10;;;1.90;;
70433;SDS011;57876;47.792;12.960;2023-06-10T14:33:51;4.80;;;1.60;;
70433;SDS011;57876;47.792;12.960;2023-06-10T14:36:15;4.80;;;1.70;;
70433;SDS011;57876;47.792;12.960;2023-06-10T14:38:40;5.07;;;1.90;;
70433;SDS011;57876;47.792;12.960;2023-06-10T14:41:04;5.13;;;1.90;;